EmailTwitter


Surface observations / United Kingdom / EGHI (03865)

Regions: Quebec | Canada | USA | Europe | France | UK | Elsewhere
Station
Display
Info & Location for EGHI (03865) | Help decoding METAR

Weather Conditions observed on 2019/10/17 at 20:50 UTC at SOUTHAMPTON WX C, UK (EGHI)

Sky conditions: variable clouds.

Obstruction(s) to Vision: showers in the vicinity.

Temperature: 13.0 Celsius.

Dewpoint: 10.0 Celsius.

Relative Humidity: 82%

Winds: Variable at 6 km/h or 3 knots.

Mean Sea level Pressure: 100.20 kilopascals.

Horizontal visibility: 6.21 statute miles or 9.94 kilometers.

Coded METAR:

EGHI 172050Z VRB03KT 9999 VCSH FEW012 SCT026 13/10 Q1002=